Time;durP1;ratioP1;P1;durP2;ratioP2;P2;SDS_P1;SDS_P2;PMS_P1;PMS_P2;Temp;Humidity;BMP_temperature;BMP_pressure;BME280_temperature;BME280_humidity;BME280_pressure;Samples;Min_cycle;Max_cycle;Signal;HPM_P1;HPM_P2
2021/11/02 00:00:34;;;;;;;61.50;35.65;;;;;;;6.00;97.03;100698.09;1703256;84;20964;-43
2021/11/02 00:03:01;;;;;;;58.28;35.75;;;;;;;6.01;97.21;100697.28;1703475;83;21599;-43
2021/11/02 00:05:28;;;;;;;59.95;36.25;;;;;;;6.02;97.38;100693.44;1703542;84;21581;-42
2021/11/02 00:07:57;;;;;;;67.72;36.58;;;;;;;6.01;97.62;100694.30;1694852;83;21295;-42
2021/11/02 00:10:24;;;;;;;62.95;37.10;;;;;;;5.98;97.76;100687.83;1687229;85;20958;-42
2021/11/02 00:12:50;;;;;;;59.90;37.05;;;;;;;5.96;98.01;100688.66;1661399;85;20978;-43
2021/11/02 00:15:23;;;;;;;64.77;35.70;;;;;;;5.96;98.21;100687.38;1703323;84;20995;-43
2021/11/02 00:17:55;;;;;;;49.35;28.17;;;;;;;5.93;98.54;100684.80;1703690;84;21804;-43
2021/11/02 00:20:22;;;;;;;64.32;35.98;;;;;;;5.91;98.87;100686.06;1721567;83;20979;-43
2021/11/02 00:22:56;;;;;;;65.37;36.15;;;;;;;5.90;99.10;100685.63;1721685;83;20920;-42
2021/11/02 00:25:24;;;;;;;64.37;35.80;;;;;;;5.86;99.68;100683.91;1687281;85;20970;-43
2021/11/02 00:27:51;;;;;;;66.00;36.93;;;;;;;5.86;99.68;100683.91;1687299;85;20915;-43
2021/11/02 00:30:18;;;;;;;70.65;39.58;;;;;;;5.89;99.90;100690.34;1687218;85;21087;-43
2021/11/02 00:32:47;;;;;;;64.30;36.53;;;;;;;5.87;99.97;100688.19;1687096;85;21504;-43
2021/11/02 00:35:14;;;;;;;62.80;36.08;;;;;;;5.86;100.00;100695.06;1687368;85;20994;-43
2021/11/02 00:37:42;;;;;;;64.30;36.73;;;;;;;5.88;100.00;100695.05;1687108;85;20930;-43
2021/11/02 00:40:10;;;;;;;55.50;34.23;;;;;;;5.88;100.00;100687.34;1687510;84;20946;-43
2021/11/02 00:42:49;;;;;;;64.97;36.40;;;;;;;5.86;100.00;100694.19;1668443;85;21612;-43
2021/11/02 00:45:11;;;;;;;65.72;36.77;;;;;;;5.87;100.00;100685.20;1742362;82;20987;-43
2021/11/02 00:47:39;;;;;;;68.07;35.30;;;;;;;5.88;100.00;100692.48;1744068;82;20941;-43
2021/11/02 00:50:10;;;;;;;59.73;35.90;;;;;;;5.88;100.00;100689.91;1743965;82;21471;-43
2021/11/02 00:52:38;;;;;;;66.22;36.33;;;;;;;5.87;100.00;100678.78;1744102;82;20973;-43
2021/11/02 00:55:07;;;;;;;63.35;36.95;;;;;;;5.87;100.00;100679.20;1744127;82;21101;-43
2021/11/02 00:57:34;;;;;;;68.45;36.00;;;;;;;5.86;100.00;100669.77;1744027;82;20877;-43
2021/11/02 01:00:00;;;;;;;60.80;35.88;;;;;;;5.85;100.00;100659.94;1743951;82;20913;-43
2021/11/02 01:02:27;;;;;;;62.73;38.50;;;;;;;5.86;100.00;100656.52;1744039;82;20941;-43
2021/11/02 01:04:54;;;;;;;63.23;37.98;;;;;;;5.85;100.00;100659.94;1744145;81;20901;-43
2021/11/02 01:07:20;;;;;;;67.60;37.45;;;;;;;5.85;100.00;100652.23;1744284;81;21189;-43
2021/11/02 01:09:47;;;;;;;71.62;39.58;;;;;;;5.86;100.00;100651.78;1744013;82;20929;-43
2021/11/02 01:12:14;;;;;;;62.67;36.17;;;;;;;5.86;100.00;100643.67;1743946;82;20944;-43
2021/11/02 01:14:41;;;;;;;65.95;36.30;;;;;;;5.87;100.00;100648.36;1743973;82;21000;-43
2021/11/02 01:17:08;;;;;;;62.88;36.63;;;;;;;5.89;100.00;100649.23;1743958;81;20965;-43
2021/11/02 01:19:35;;;;;;;67.40;39.08;;;;;;;5.89;100.00;100638.95;1743948;82;21189;-43
2021/11/02 01:22:02;;;;;;;71.45;39.05;;;;;;;5.90;100.00;100639.38;1690794;82;20929;-43
2021/11/02 01:24:29;;;;;;;68.72;38.98;;;;;;;5.91;100.00;100639.81;1744215;82;21007;-43
2021/11/02 01:26:56;;;;;;;74.45;38.28;;;;;;;5.91;100.00;100639.81;1743894;81;20917;-43
2021/11/02 01:29:24;;;;;;;69.07;38.10;;;;;;;5.93;100.00;100647.09;1744310;81;21566;-43
2021/11/02 01:31:52;;;;;;;73.10;39.83;;;;;;;5.93;100.00;100638.11;1744133;81;21132;-43
2021/11/02 01:34:21;;;;;;;75.97;41.50;;;;;;;5.92;100.00;100633.81;1714767;82;21573;-43
2021/11/02 01:36:50;;;;;;;74.45;38.25;;;;;;;5.91;100.00;100637.24;1743689;82;20909;-43
2021/11/02 01:39:18;;;;;;;70.10;39.08;;;;;;;5.91;100.00;100626.97;1744129;82;20964;-43
2021/11/02 01:41:48;;;;;;;70.40;38.50;;;;;;;5.93;100.00;100640.67;1746216;81;20921;-43
2021/11/02 01:44:15;;;;;;;78.45;38.60;;;;;;;5.94;100.00;100638.56;1722414;82;21953;-44
2021/11/02 01:55:15;;;;;;;80.12;42.05;;;;;;;5.95;100.00;100634.27;1749689;81;20884;-43
2021/11/02 01:57:44;;;;;;;77.12;41.25;;;;;;;5.96;100.00;100631.72;1749728;82;20908;-43
2021/11/02 02:00:13;;;;;;;74.58;40.95;;;;;;;5.96;100.00;100628.27;1749691;82;21234;-43
2021/11/02 02:02:53;;;;;;;83.27;42.70;;;;;;;5.96;100.00;100630.84;1749007;82;21011;-44
2021/11/02 02:05:57;;;;;;;78.25;42.95;;;;;;;5.97;100.00;100624.44;1738029;82;20944;-43
2021/11/02 02:08:35;;;;;;;77.97;43.30;;;;;;;5.98;100.00;100626.56;1749345;82;20984;-43
2021/11/02 02:11:12;;;;;;;76.65;42.43;;;;;;;5.98;100.00;100627.44;1749789;82;20925;-43
2021/11/02 02:13:52;;;;;;;82.67;44.23;;;;;;;6.00;100.00;100624.45;1748548;82;21176;-43
2021/11/02 02:16:26;;;;;;;84.07;43.02;;;;;;;6.01;100.00;100619.77;1722145;82;21431;-43
2021/11/02 02:19:18;;;;;;;90.50;42.93;;;;;;;6.03;100.00;100617.19;1749567;82;20920;-43
2021/11/02 02:21:52;;;;;;;87.65;46.35;;;;;;;6.03;100.00;100608.19;1749827;82;20905;-43
2021/11/02 02:27:53;;;;;;;87.72;44.95;;;;;;;6.03;100.00;100602.64;1703173;81;21550;-43
2021/11/02 02:30:21;;;;;;;78.62;42.43;;;;;;;6.06;100.00;100598.36;1673512;85;20990;-41
2021/11/02 02:32:51;;;;;;;85.55;46.20;;;;;;;6.06;100.00;100597.07;1670225;85;20965;-42
2021/11/02 02:35:18;;;;;;;87.17;45.33;;;;;;;6.07;100.00;100585.94;1672762;84;20926;-42
2021/11/02 02:37:47;;;;;;;82.15;44.88;;;;;;;6.08;100.00;100582.51;1692855;84;20953;-42
2021/11/02 02:40:14;;;;;;;92.25;45.05;;;;;;;6.09;100.00;100584.22;1690022;85;21151;-42
2021/11/02 02:42:41;;;;;;;87.10;44.53;;;;;;;6.10;100.00;100575.25;1692828;84;20949;-42
2021/11/02 02:45:09;;;;;;;88.70;45.28;;;;;;;6.11;100.00;100572.23;1690124;85;20996;-42
2021/11/02 02:47:37;;;;;;;87.88;45.52;;;;;;;6.11;100.00;100573.52;1650139;84;21013;-42
2021/11/02 02:50:07;;;;;;;82.55;44.75;;;;;;;6.12;100.00;100565.83;1690008;84;21420;-42
2021/11/02 02:52:35;;;;;;;86.37;45.73;;;;;;;6.14;100.00;100560.25;1692864;84;21053;-42
2021/11/02 02:57:56;;;;;;;95.28;47.50;;;;;;;6.15;100.00;100546.95;1798316;79;22662;-41
2021/11/02 03:00:25;;;;;;;105.45;49.58;;;;;;;6.12;100.00;100546.95;1757982;81;20889;-41
2021/11/02 03:02:51;;;;;;;101.30;49.77;;;;;;;6.13;100.00;100543.53;1758105;81;21741;-42
2021/11/02 03:05:19;;;;;;;105.05;51.15;;;;;;;6.16;100.00;100541.83;1757931;80;21031;-42
2021/11/02 03:07:47;;;;;;;99.03;48.17;;;;;;;6.20;100.00;100532.42;1758053;81;21015;-41
2021/11/02 03:10:13;;;;;;;98.82;48.98;;;;;;;6.21;100.00;100519.13;1758326;81;21482;-41
2021/11/02 03:12:46;;;;;;;100.35;50.85;;;;;;;6.24;100.00;100514.85;1758101;81;21007;-42
2021/11/02 03:43:45;;;;;;;111.75;50.52;;;;;;;6.59;100.00;100474.55;1749752;82;21159;-42
2021/11/02 03:50:45;;;;;;;110.32;52.27;;;;;;;6.67;100.00;100464.22;1749617;82;20999;-42
2021/11/02 03:58:39;;;;;;;121.37;53.98;;;;;;;6.75;100.00;100476.66;1750337;81;21074;-43
2021/11/02 04:01:16;;;;;;;115.55;50.05;;;;;;;6.78;100.00;100474.48;1749952;81;21424;-43
2021/11/02 04:28:38;;;;;;;120.80;54.40;;;;;;;6.97;100.00;100462.00;1750206;81;21055;-42
2021/11/02 05:46:45;;;;;;;104.53;47.45;;;;;;;7.62;100.00;100417.05;1750073;82;21523;-42
2021/11/02 05:48:12;;;;;;;104.75;48.40;;;;;;;7.96;100.00;100424.55;1749966;82;20980;-43
2021/11/02 06:03:51;;;;;;;95.38;48.00;;;;;;;8.12;100.00;100425.69;1746277;81;21514;-43
2021/11/02 06:07:04;;;;;;;83.20;44.25;;;;;;;8.12;100.00;100432.12;1745059;82;21359;-42
2021/11/02 06:09:35;;;;;;;87.27;44.48;;;;;;;8.14;100.00;100426.52;1729473;82;21477;-43
2021/11/02 06:23:43;;;;;;;91.67;46.20;;;;;;;8.19;100.00;100422.17;1721530;82;21027;-44
2021/11/02 06:28:59;;;;;;;91.72;44.63;;;;;;;8.22;100.00;100405.41;1745906;82;20897;-42
2021/11/02 06:34:08;;;;;;;86.12;46.48;;;;;;;8.22;100.00;100399.38;1746449;82;21541;-43
2021/11/02 06:44:37;;;;;;;97.72;46.02;;;;;;;8.25;100.00;100386.03;1746181;82;21019;-42
2021/11/02 07:17:28;;;;;;;83.07;43.05;;;;;;;8.46;100.00;100370.77;1735943;82;20897;-42
2021/11/02 08:47:09;;;;;;;66.20;39.25;;;;;;;9.25;100.00;100246.72;1696279;84;20982;-43
2021/11/02 08:49:32;;;;;;;70.43;41.43;;;;;;;9.28;100.00;100236.33;1694913;84;20996;-43
2021/11/02 08:52:01;;;;;;;73.65;41.13;;;;;;;9.30;100.00;100233.28;1696236;84;21768;-43
2021/11/02 08:54:26;;;;;;;69.32;40.17;;;;;;;9.35;100.00;100234.05;1695744;84;21084;-43
2021/11/02 08:56:54;;;;;;;69.00;39.67;;;;;;;9.37;100.00;100234.87;1695820;84;21144;-43
2021/11/02 08:59:20;;;;;;;68.30;41.73;;;;;;;9.40;100.00;100234.81;1667163;84;21645;-43
2021/11/02 09:01:51;;;;;;;63.65;38.53;;;;;;;9.42;100.00;100238.22;1702961;84;21470;-43
2021/11/02 09:04:17;;;;;;;63.52;37.10;;;;;;;9.45;100.00;100243.33;1693155;84;20917;-43
2021/11/02 09:06:45;;;;;;;58.10;37.00;;;;;;;9.51;100.00;100238.96;1678138;85;20914;-43
2021/11/02 09:09:12;;;;;;;61.05;36.53;;;;;;;9.57;100.00;100240.14;1628159;85;21116;-43
2021/11/02 09:11:42;;;;;;;58.08;35.88;;;;;;;9.60;100.00;100240.08;1693341;84;21550;-43
2021/11/02 09:14:09;;;;;;;57.20;37.05;;;;;;;9.62;100.00;100246.08;1677776;85;20933;-43
2021/11/02 09:16:38;;;;;;;53.20;34.58;;;;;;;9.63;100.00;100249.94;1677838;85;20977;-43
2021/11/02 09:19:04;;;;;;;52.75;34.55;;;;;;;9.68;100.00;100247.70;1702995;84;21022;-43
2021/11/02 09:21:31;;;;;;;56.08;34.88;;;;;;;9.66;100.00;100242.55;1693635;84;21051;-43
2021/11/02 09:24:00;;;;;;;50.55;34.78;;;;;;;9.70;100.00;100241.61;1677738;84;20957;-43
2021/11/02 09:26:26;;;;;;;52.05;32.78;;;;;;;9.71;100.00;100251.06;1651665;82;20950;-43
2021/11/02 09:28:54;;;;;;;50.90;31.80;;;;;;;9.75;100.00;100259.20;1704359;83;20875;-43
2021/11/02 09:31:24;;;;;;;43.87;30.02;;;;;;;9.76;100.00;100258.32;1689280;84;21059;-43
2021/11/02 09:33:50;;;;;;;46.55;30.72;;;;;;;9.77;100.00;100259.16;1707461;84;21129;-43
2021/11/02 09:36:23;;;;;;;44.98;28.40;;;;;;;9.77;100.00;100261.31;1707425;84;21835;-43
2021/11/02 09:38:58;;;;;;;48.23;32.48;;;;;;;9.75;100.00;100257.91;1689881;84;21023;-44
2021/11/02 09:41:37;;;;;;;;;;;;;;;9.76;100.00;100232.90;1669118;84;20991;-43
2021/11/02 09:44:14;;;;;;;44.35;30.37;;;;;;;9.73;100.00;100238.13;1706366;83;20121;-44
2021/11/02 09:47:27;;;;;;;43.78;30.75;;;;;;;9.70;100.00;100232.56;1707270;84;20944;-44
2021/11/02 09:50:28;;;;;;;44.77;30.55;;;;;;;9.66;100.00;100232.20;1689436;84;20956;-43
2021/11/02 09:53:29;;;;;;;47.67;31.52;;;;;;;9.65;100.00;100230.51;1707481;84;21091;-43
2021/11/02 09:56:15;;;;;;;49.40;32.60;;;;;;;9.66;100.00;100228.33;1707791;83;21042;-43
2021/11/02 09:59:20;;;;;;;47.43;31.77;;;;;;;9.69;100.00;100218.39;1707600;84;20964;-43
2021/11/02 10:02:13;;;;;;;48.23;32.45;;;;;;;9.71;100.00;100217.92;1679688;84;21121;-43
2021/11/02 10:05:04;;;;;;;48.92;30.95;;;;;;;9.74;100.00;100214.84;1707372;84;22315;-44
2021/11/02 10:08:04;;;;;;;49.35;31.00;;;;;;;9.73;100.00;100214.44;1705836;84;20945;-44
2021/11/02 10:11:10;;;;;;;49.85;32.65;;;;;;;9.72;100.00;100207.53;1705801;84;22168;-44
2021/11/02 10:13:59;;;;;;;49.33;32.23;;;;;;;9.75;100.00;100206.64;1707368;84;20999;-44
2021/11/02 10:16:45;;;;;;;46.58;32.98;;;;;;;9.73;100.00;100198.93;1688495;84;21922;-43
2021/11/02 10:19:47;;;;;;;50.30;33.98;;;;;;;9.71;100.00;100205.00;1707762;84;21549;-43
2021/11/02 10:22:35;;;;;;;48.63;32.10;;;;;;;9.71;100.00;100200.66;1666016;84;20945;-43
2021/11/02 10:25:15;;;;;;;43.25;31.45;;;;;;;9.72;100.00;100201.08;1707554;82;20964;-44
2021/11/02 10:28:04;;;;;;;49.48;32.80;;;;;;;9.73;100.00;100195.05;1705461;83;21003;-43
2021/11/02 10:31:03;;;;;;;52.10;34.98;;;;;;;9.74;100.00;100188.13;1722459;83;20967;-43
2021/11/02 10:33:35;;;;;;;52.80;33.48;;;;;;;9.77;100.00;100182.48;1711308;83;20975;-44
2021/11/02 10:36:30;;;;;;;51.50;33.85;;;;;;;9.74;100.00;100183.83;1731198;82;20966;-44
2021/11/02 10:39:27;;;;;;;49.90;33.73;;;;;;;9.76;100.00;100178.61;1730867;82;20952;-43
2021/11/02 10:42:16;;;;;;;52.25;33.10;;;;;;;9.78;100.00;100180.73;1713682;83;21604;-43
2021/11/02 10:44:51;;;;;;;47.67;33.02;;;;;;;9.80;100.00;100176.83;1721689;83;21153;-44
2021/11/02 10:47:32;;;;;;;51.60;34.13;;;;;;;9.80;100.00;100178.96;1731424;83;20932;-44
2021/11/02 10:50:12;;;;;;;50.40;33.50;;;;;;;9.82;100.00;100167.31;1731163;83;20935;-44
2021/11/02 10:52:40;;;;;;;50.90;34.53;;;;;;;9.84;100.00;100168.12;1731343;82;20920;-43
2021/11/02 10:55:24;;;;;;;49.30;34.45;;;;;;;9.84;100.00;100171.55;1712024;83;20825;-42
2021/11/02 10:58:21;;;;;;;44.80;31.73;;;;;;;9.87;100.00;100170.65;1731250;82;21117;-43
2021/11/02 11:00:49;;;;;;;50.20;32.38;;;;;;;9.88;100.00;100169.77;1712260;83;20861;-43
2021/11/02 11:03:15;;;;;;;47.25;31.42;;;;;;;9.90;100.00;100169.29;1731307;83;21374;-42
2021/11/02 11:05:44;;;;;;;43.85;31.07;;;;;;;9.92;100.00;100161.92;1731052;83;21517;-43
2021/11/02 11:08:12;;;;;;;41.28;28.65;;;;;;;9.96;100.00;100161.86;1731302;82;20888;-43
2021/11/02 11:10:39;;;;;;;42.43;29.35;;;;;;;9.99;100.00;100154.90;1731165;83;22188;-44
2021/11/02 11:13:06;;;;;;;38.90;29.00;;;;;;;10.02;100.00;100160.00;1712017;83;21462;-44
2021/11/02 11:15:35;;;;;;;40.58;28.10;;;;;;;10.05;100.00;100157.35;1688589;83;20953;-43
2021/11/02 11:18:06;;;;;;;42.33;28.05;;;;;;;10.08;100.00;100155.58;1730540;82;20959;-44
2021/11/02 11:20:34;;;;;;;36.90;26.60;;;;;;;10.06;100.00;100150.00;1731612;83;21453;-43
2021/11/02 11:23:07;;;;;;;36.77;28.42;;;;;;;10.09;100.00;100142.59;1712476;83;21132;-44
2021/11/02 11:26:00;;;;;;;37.03;27.45;;;;;;;10.10;100.00;100140.88;1730955;81;21470;-42
2021/11/02 11:28:27;;;;;;;34.80;26.42;;;;;;;10.08;100.00;100140.90;1731368;83;20969;-44
2021/11/02 11:30:53;;;;;;;35.28;27.10;;;;;;;10.07;100.00;100143.08;1731181;83;20880;-44
2021/11/02 11:33:20;;;;;;;34.15;25.08;;;;;;;10.06;100.00;100134.91;1731390;82;21493;-44
2021/11/02 11:35:49;;;;;;;40.80;25.12;;;;;;;10.06;100.00;100135.78;1731069;82;21043;-44
2021/11/02 11:38:17;;;;;;;29.12;24.10;;;;;;;10.08;100.00;100136.19;1731193;82;21286;-44
2021/11/02 11:40:45;;;;;;;31.95;25.23;;;;;;;10.08;100.00;100129.27;1712398;83;20884;-44
2021/11/02 11:43:13;;;;;;;36.38;26.55;;;;;;;10.11;100.00;100132.23;1731133;83;20979;-44
2021/11/02 11:45:43;;;;;;;34.10;24.65;;;;;;;10.10;100.00;100133.95;1731347;83;21035;-44
2021/11/02 11:48:24;;;;;;;34.35;23.95;;;;;;;10.09;100.00;100134.84;1731439;83;21104;-44
2021/11/02 11:50:50;;;;;;;29.95;22.65;;;;;;;10.10;100.00;100135.70;1731362;83;20915;-42
2021/11/02 11:53:23;;;;;;;30.17;22.95;;;;;;;10.13;100.00;100130.47;1712416;83;20868;-43
2021/11/02 11:56:05;;;;;;;32.98;23.77;;;;;;;10.18;100.00;100120.44;1731336;83;20951;-44
2021/11/02 11:58:31;;;;;;;27.00;21.73;;;;;;;10.23;100.00;100122.93;1730582;82;21486;-43
2021/11/02 12:01:10;;;;;;;25.05;20.12;;;;;;;10.26;100.00;100123.28;1731480;83;21157;-43
2021/11/02 12:04:04;;;;;;;24.87;19.32;;;;;;;10.29;100.00;100120.20;1731420;83;20849;-43
2021/11/02 12:07:02;;;;;;;22.67;18.48;;;;;;;10.29;100.00;100121.48;1706250;83;21449;-44
2021/11/02 12:09:28;;;;;;;;;;;;;;;10.29;100.00;100123.21;1734107;83;20951;-43
2021/11/02 12:11:58;;;;;;;;;;;;;;;10.25;100.00;100118.57;1714925;83;20155;-43
2021/11/02 12:14:26;;;;;;;28.07;19.30;;;;;;;10.27;100.00;100115.93;1731372;82;21114;-43
2021/11/02 12:16:59;;;;;;;23.87;18.17;;;;;;;10.26;100.00;100116.81;1730982;83;20924;-43
2021/11/02 12:19:40;;;;;;;23.47;17.00;;;;;;;10.27;100.00;100117.22;1713628;82;20923;-44
2021/11/02 12:22:13;;;;;;;22.35;17.80;;;;;;;10.28;100.00;100113.32;1712795;83;21358;-45
2021/11/02 12:24:41;;;;;;;27.95;17.77;;;;;;;10.27;100.00;100114.20;1729658;79;21087;-45
2021/11/02 12:27:18;;;;;;;21.57;17.32;;;;;;;10.27;100.00;100111.63;1676181;85;21136;-44
2021/11/02 12:29:51;;;;;;;21.75;16.85;;;;;;;10.26;100.00;100116.39;1652567;85;22318;-44
2021/11/02 12:32:21;;;;;;;22.10;16.62;;;;;;;10.25;100.00;100114.69;1636477;85;20987;-43
2021/11/02 12:34:52;;;;;;;22.45;15.30;;;;;;;10.23;100.00;100113.88;1677434;85;21063;-44
2021/11/02 12:37:24;;;;;;;20.62;16.15;;;;;;;10.22;100.00;100113.44;1676518;85;21004;-44
2021/11/02 12:39:51;;;;;;;22.32;16.57;;;;;;;10.21;100.00;100120.79;1677728;85;21153;-44
2021/11/02 12:42:26;;;;;;;19.80;15.58;;;;;;;10.20;100.00;100124.27;1676353;85;20909;-44
2021/11/02 12:44:51;;;;;;;20.95;16.65;;;;;;;10.21;100.00;100124.24;1658852;85;20968;-44
2021/11/02 12:47:23;;;;;;;26.40;18.82;;;;;;;10.23;100.00;100127.23;1677785;85;20918;-44
2021/11/02 12:49:59;;;;;;;21.62;16.87;;;;;;;10.23;100.00;100124.22;1637002;85;21506;-44
2021/11/02 12:52:36;;;;;;;22.90;16.82;;;;;;;10.20;100.00;100128.14;1677750;85;21154;-44
2021/11/02 12:55:07;;;;;;;22.48;16.90;;;;;;;10.16;100.00;100128.67;1677398;85;21008;-44
2021/11/02 12:57:44;;;;;;;27.00;17.12;;;;;;;10.17;100.00;100125.63;1660835;85;20996;-44
2021/11/02 13:00:24;;;;;;;21.87;16.17;;;;;;;10.14;100.00;100126.99;1676643;85;21511;-44
2021/11/02 13:02:55;;;;;;;22.10;15.60;;;;;;;10.13;100.00;100119.69;1677644;85;20980;-44
2021/11/02 13:05:24;;;;;;;22.35;16.30;;;;;;;10.11;100.00;100119.30;1624030;87;21946;-45
2021/11/02 13:08:09;;;;;;;28.85;16.95;;;;;;;10.11;100.00;100120.59;1641481;87;20981;-44
2021/11/02 13:10:38;;;;;;;25.08;17.30;;;;;;;10.10;100.00;100117.14;1642367;87;20997;-43
2021/11/02 13:13:13;;;;;;;23.45;16.17;;;;;;;10.10;100.00;100117.14;1601407;88;21024;-43
2021/11/02 13:15:53;;;;;;;21.95;16.55;;;;;;;10.10;100.00;100124.07;1644057;87;20988;-43
2021/11/02 13:18:38;;;;;;;19.75;15.78;;;;;;;10.08;100.00;100121.50;1623115;88;21187;-44
2021/11/02 13:21:25;;;;;;;23.42;16.93;;;;;;;10.06;100.00;100120.27;1644591;86;20956;-43
2021/11/02 13:24:16;;;;;;;24.18;15.65;;;;;;;10.05;100.00;100121.58;1644002;87;21007;-44
2021/11/02 13:26:51;;;;;;;23.67;15.15;;;;;;;10.04;100.00;100114.70;1595589;89;21059;-44
2021/11/02 13:29:23;;;;;;;26.20;16.25;;;;;;;10.04;100.00;100117.28;1617703;88;20952;-44
2021/11/02 13:31:51;;;;;;;21.68;14.73;;;;;;;10.02;100.00;100121.22;1617720;88;21845;-44
2021/11/02 13:34:33;;;;;;;24.47;15.98;;;;;;;10.01;100.00;100122.10;1597321;89;20973;-44
2021/11/02 13:37:04;;;;;;;25.23;14.68;;;;;;;9.99;100.00;100119.99;1617740;88;20920;-44
2021/11/02 13:39:30;;;;;;;23.10;14.98;;;;;;;9.98;100.00;100123.47;1653454;86;21019;-44
2021/11/02 13:41:57;;;;;;;24.82;15.72;;;;;;;10.00;100.00;100118.24;1628659;86;21055;-44
2021/11/02 13:44:26;;;;;;;23.45;15.13;;;;;;;9.99;100.00;100118.70;1649806;86;21191;-44
2021/11/02 13:46:58;;;;;;;22.40;14.68;;;;;;;9.98;100.00;100118.30;1618590;88;20968;-44
2021/11/02 13:49:24;;;;;;;20.45;14.75;;;;;;;9.99;100.00;100125.16;1618692;88;20923;-44
2021/11/02 13:51:51;;;;;;;23.02;15.43;;;;;;;9.99;100.00;100124.30;1596123;89;21658;-44
2021/11/02 13:54:18;;;;;;;22.30;14.85;;;;;;;9.98;100.00;100122.17;1617352;88;21439;-44
2021/11/02 13:56:46;;;;;;;21.48;13.05;;;;;;;9.99;100.00;100118.70;1617816;88;21830;-44
2021/11/02 13:59:13;;;;;;;22.45;13.53;;;;;;;10.00;100.00;100120.83;1614699;88;21036;-44
2021/11/02 14:01:50;;;;;;;22.15;13.15;;;;;;;10.00;100.00;100115.66;1593457;89;20954;-44
2021/11/02 14:04:21;;;;;;;;;;;;;;;10.00;100.00;100120.41;1595583;89;21045;-43
2021/11/02 14:06:51;;;;;;;28.02;14.25;;;;;;;9.99;100.00;100114.82;1593726;89;20107;-44
2021/11/02 14:09:29;;;;;;;26.75;14.38;;;;;;;9.98;100.00;100120.88;1611758;88;21215;-43
2021/11/02 14:11:58;;;;;;;29.50;14.00;;;;;;;9.97;100.00;100117.85;1617912;88;22664;-44
2021/11/02 14:14:35;;;;;;;25.10;13.03;;;;;;;9.96;100.00;100109.69;1535358;89;20988;-44
2021/11/02 14:17:22;;;;;;;21.90;12.60;;;;;;;9.97;100.00;100117.02;1602574;88;21012;-43
2021/11/02 14:19:51;;;;;;;23.00;13.35;;;;;;;9.96;100.00;100122.61;1611801;89;20898;-43
2021/11/02 14:22:52;;;;;;;33.08;14.58;;;;;;;9.96;100.00;100125.20;1588780;89;21194;-43
2021/11/02 14:25:25;;;;;;;23.57;14.13;;;;;;;9.94;100.00;100130.84;1593765;88;21068;-45
2021/11/02 14:27:52;;;;;;;28.77;13.65;;;;;;;9.91;100.00;100130.49;1611170;88;21013;-45
2021/11/02 14:30:34;;;;;;;30.00;12.65;;;;;;;9.92;100.00;100132.19;1611746;89;20893;-44
2021/11/02 14:33:10;;;;;;;22.02;13.03;;;;;;;9.93;100.00;100140.78;1611839;89;20944;-44
2021/11/02 14:35:49;;;;;;;26.55;13.32;;;;;;;9.94;100.00;100137.31;1611858;89;21224;-44
2021/11/02 14:38:26;;;;;;;27.20;13.18;;;;;;;9.95;100.00;100144.19;1643935;87;20972;-44
2021/11/02 14:40:58;;;;;;;22.48;12.78;;;;;;;9.96;100.00;100145.05;1611733;88;20996;-44
2021/11/02 14:43:32;;;;;;;27.42;13.00;;;;;;;9.96;100.00;100144.59;1593176;89;21028;-44
2021/11/02 14:46:04;;;;;;;24.82;12.45;;;;;;;9.96;100.00;100145.89;1594763;89;21028;-43
2021/11/02 14:48:47;;;;;;;25.30;12.63;;;;;;;9.96;100.00;100148.47;1593442;90;21168;-44
2021/11/02 15:57:11;;;;;;;24.82;13.40;;;;;;;9.79;100.00;100208.28;1801810;78;22806;-43
2021/11/02 15:59:38;;;;;;;38.28;14.07;;;;;;;9.84;100.00;100212.08;1824304;78;21012;-44
2021/11/02 16:02:05;;;;;;;25.12;13.62;;;;;;;9.85;100.00;100216.36;1824325;78;21106;-44
2021/11/02 16:04:32;;;;;;;20.80;11.75;;;;;;;9.87;100.00;100215.89;1790422;79;21006;-43
2021/11/02 16:07:11;;;;;;;18.92;11.50;;;;;;;9.89;100.00;100214.13;1790577;79;20920;-43
2021/11/02 16:09:54;;;;;;;19.55;10.43;;;;;;;9.90;100.00;100218.41;1799169;79;21864;-44
2021/11/02 16:12:36;;;;;;;25.25;9.68;;;;;;;9.89;100.00;100217.58;1790157;79;20928;-44
2021/11/02 16:15:13;;;;;;;44.88;10.98;;;;;;;9.88;100.00;100217.59;1790432;79;21017;-44
2021/11/02 16:17:51;;;;;;;29.20;9.83;;;;;;;9.85;100.00;100219.81;1790374;80;20932;-44
2021/11/02 16:20:29;;;;;;;36.73;9.73;;;;;;;9.84;100.00;100223.71;1790351;80;20912;-44
2021/11/02 16:23:12;;;;;;;34.73;11.30;;;;;;;9.81;100.00;100227.65;1788143;79;20960;-44
2021/11/02 16:25:41;;;;;;;27.27;10.78;;;;;;;9.76;100.00;100223.42;1799093;79;20967;-45
2021/11/02 16:28:21;;;;;;;17.23;9.10;;;;;;;9.75;100.00;100228.61;1790461;79;21947;-45
2021/11/02 16:31:00;;;;;;;15.50;9.38;;;;;;;9.73;100.00;100235.55;1772519;80;21014;-44
2021/11/02 16:33:37;;;;;;;29.87;9.40;;;;;;;9.69;100.00;100233.44;1790694;79;20901;-43
2021/11/02 16:36:29;;;;;;;23.30;9.50;;;;;;;9.66;100.00;100236.09;1790452;80;20979;-44
2021/11/02 16:38:58;;;;;;;18.07;10.50;;;;;;;9.64;100.00;100239.14;1799282;79;20956;-43
2021/11/02 16:41:33;;;;;;;11.70;8.68;;;;;;;9.63;100.00;100234.43;1790475;80;21833;-44
2021/11/02 16:44:09;;;;;;;13.35;8.98;;;;;;;9.62;100.00;100240.48;1790771;79;20928;-44
2021/11/02 16:46:46;;;;;;;13.20;9.63;;;;;;;9.61;100.00;100239.20;1784401;79;21536;-45
2021/11/02 16:49:23;;;;;;;12.73;9.43;;;;;;;9.61;100.00;100237.91;1818163;79;20971;-44
2021/11/02 16:52:05;;;;;;;10.03;8.73;;;;;;;9.59;100.00;100238.38;1792801;80;20978;-44
2021/11/02 16:54:39;;;;;;;11.22;9.53;;;;;;;9.59;100.00;100233.20;1793018;80;21783;-45
2021/11/02 16:57:16;;;;;;;13.13;8.90;;;;;;;9.58;100.00;100233.63;1758336;80;21030;-45
2021/11/02 16:59:52;;;;;;;12.78;9.88;;;;;;;9.58;100.00;100228.92;1778314;80;20927;-45
2021/11/02 17:02:41;;;;;;;13.10;10.13;;;;;;;9.57;100.00;100228.52;1778454;80;20995;-45
2021/11/02 17:05:27;;;;;;;18.23;10.43;;;;;;;9.56;100.00;100230.69;1778754;80;20982;-44
2021/11/02 17:08:05;;;;;;;14.73;10.32;;;;;;;9.54;100.00;100233.28;1778443;80;21108;-45
2021/11/02 17:10:38;;;;;;;20.50;10.40;;;;;;;9.51;100.00;100232.05;1776915;80;21496;-45
2021/11/02 17:13:27;;;;;;;30.77;10.43;;;;;;;9.51;100.00;100233.80;1778502;80;20971;-45
2021/11/02 17:15:59;;;;;;;;;;;;;;;9.49;100.00;100233.38;1779360;80;20951;-43
2021/11/02 17:18:30;;;;;;;30.70;11.95;;;;;;;9.47;100.00;100238.16;1758483;80;20123;-44
2021/11/02 17:21:05;;;;;;;31.73;12.68;;;;;;;9.44;100.00;100243.38;1756808;80;21109;-44
2021/11/02 17:23:36;;;;;;;37.90;12.70;;;;;;;9.43;100.00;100239.09;1778317;80;20978;-44
2021/11/02 17:26:05;;;;;;;36.13;11.85;;;;;;;9.42;100.00;100242.55;1778507;80;21022;-44
2021/11/02 17:28:34;;;;;;;32.90;11.73;;;;;;;9.40;100.00;100239.98;1778583;80;20947;-44
2021/11/02 17:31:02;;;;;;;38.98;11.68;;;;;;;9.40;100.00;100246.44;1778729;80;20939;-44
2021/11/02 17:33:30;;;;;;;25.60;12.30;;;;;;;9.38;100.00;100242.20;1778514;80;21168;-43
2021/11/02 17:35:56;;;;;;;16.57;11.10;;;;;;;9.38;100.00;100243.03;1778679;80;21022;-44
2021/11/02 17:38:23;;;;;;;16.30;10.78;;;;;;;9.38;100.00;100241.73;1758728;80;20967;-44
2021/11/02 17:40:51;;;;;;;17.17;9.85;;;;;;;9.37;100.00;100236.62;1778489;80;20979;-44
2021/11/02 17:43:18;;;;;;;13.28;10.55;;;;;;;9.37;100.00;100233.58;1778775;80;21568;-44
2021/11/02 17:45:46;;;;;;;17.92;10.58;;;;;;;9.37;100.00;100232.74;1758705;80;21086;-44
2021/11/02 17:48:15;;;;;;;18.23;11.35;;;;;;;9.37;100.00;100234.03;1778742;80;21002;-44
2021/11/02 17:50:44;;;;;;;16.37;11.55;;;;;;;9.38;100.00;100228.82;1778440;80;20995;-44
2021/11/02 17:53:11;;;;;;;13.00;10.18;;;;;;;9.38;100.00;100239.16;1758986;80;21059;-45